Time;durP1;ratioP1;P1;durP2;ratioP2;P2;SDS_P1;SDS_P2;PMS_P1;PMS_P2;Temp;Humidity;BMP_temperature;BMP_pressure;BME280_temperature;BME280_humidity;BME280_pressure;Samples;Min_cycle;Max_cycle;Signal;HPM_P1;HPM_P2
2022/12/08 00:01:21;;;;;;;58.38;38.35;;;204.90;2252.80;;;;;;4982659;28;20465;-62
2022/12/08 00:09:49;;;;;;;53.47;34.42;;;180.10;2252.80;;;;;;4980897;28;20041;-64
2022/12/08 00:12:15;;;;;;;75.20;44.33;;;180.00;2252.80;;;;;;4977320;28;20047;-59
2022/12/08 00:14:44;;;;;;;61.45;39.40;;;180.00;2252.80;;;;;;4977211;28;20539;-64
2022/12/08 00:17:11;;;;;;;43.28;29.25;;;180.10;2252.80;;;;;;4976882;28;20544;-59
2022/12/08 00:19:38;;;;;;;39.45;25.70;;;180.10;2252.80;;;;;;4976272;28;20035;-63
2022/12/08 00:22:06;;;;;;;42.92;28.00;;;180.00;2252.80;;;;;;4976095;28;20519;-58
2022/12/08 00:24:35;;;;;;;60.17;35.50;;;180.00;1945.60;;;;;;4977037;28;20118;-58
2022/12/08 00:27:04;;;;;;;73.13;48.45;;;180.00;2252.80;;;;;;4976536;28;20058;-58
2022/12/08 00:29:29;;;;;;;49.28;34.60;;;204.90;2252.80;;;;;;4976925;28;20102;-59
2022/12/08 00:31:55;;;;;;;57.53;37.08;;;;;;;;;;4976553;28;20130;-60
2022/12/08 00:34:21;;;;;;;72.20;43.50;;;204.90;2252.80;;;;;;4976853;28;20082;-62
2022/12/08 00:36:47;;;;;;;42.67;28.50;;;204.80;2252.80;;;;;;4976543;28;20053;-59
2022/12/08 00:39:14;;;;;;;34.55;23.48;;;;;;;;;;4982081;28;20030;-58
2022/12/08 00:44:24;;;;;;;49.78;28.38;;;180.00;2252.80;;;;;;4980911;28;20081;-63
2022/12/08 00:46:50;;;;;;;60.63;34.20;;;;;;;;;;4982167;28;20420;-58
2022/12/08 00:49:16;;;;;;;33.22;23.98;;;;;;;;;;4983723;28;20018;-57
2022/12/08 00:51:43;;;;;;;44.28;26.35;;;;;;;;;;4982145;28;20019;-58
2022/12/08 00:54:09;;;;;;;40.58;23.50;;;;;;;;;;4982013;28;20449;-63
2022/12/08 00:56:35;;;;;;;38.80;24.75;;;;;;;;;;4983422;28;20051;-58
2022/12/08 00:59:02;;;;;;;47.42;31.10;;;;;;;;;;4981780;28;20146;-58
2022/12/08 01:01:28;;;;;;;38.50;25.55;;;;;;;;;;4982097;28;20053;-57
2022/12/08 01:03:54;;;;;;;40.30;23.92;;;;;;;;;;4983301;28;20073;-58
2022/12/08 01:06:20;;;;;;;33.45;21.65;;;;;;;;;;4981564;28;20425;-58
2022/12/08 01:08:47;;;;;;;34.42;21.23;;;;;;;;;;4982124;28;20361;-59
2022/12/08 01:11:14;;;;;;;35.25;24.50;;;;;;;;;;4983107;28;20038;-58
2022/12/08 01:13:40;;;;;;;111.07;58.65;;;;;;;;;;4979155;28;20042;-58
2022/12/08 01:16:07;;;;;;;36.33;23.23;;;;;;;;;;4982400;28;20018;-57
2022/12/08 01:18:33;;;;;;;60.72;35.45;;;;;;;;;;4983309;28;21153;-63
2022/12/08 01:21:03;;;;;;;46.72;29.73;;;;;;;;;;4979049;28;20022;-57
2022/12/08 01:23:29;;;;;;;37.17;25.48;;;;;;;;;;4981701;28;20069;-56
2022/12/08 01:25:55;;;;;;;42.83;26.45;;;;;;;;;;4982996;28;20083;-59
2022/12/08 01:28:21;;;;;;;39.60;25.55;;;;;;;;;;4981397;28;20653;-56
2022/12/08 01:30:47;;;;;;;48.85;31.45;;;;;;;;;;4981930;28;20476;-62
2022/12/08 01:33:13;;;;;;;44.58;29.88;;;;;;;;;;4982416;28;20031;-57
2022/12/08 01:35:39;;;;;;;43.45;28.20;;;;;;;;;;4981170;28;20066;-57
2022/12/08 01:38:05;;;;;;;43.88;32.40;;;;;;;;;;4982339;28;20049;-57
2022/12/08 01:40:31;;;;;;;45.92;29.02;;;204.80;2252.80;;;;;;4982261;28;20050;-57
2022/12/08 01:42:57;;;;;;;48.15;30.48;;;;;;;;;;4980784;28;20402;-57
2022/12/08 01:45:26;;;;;;;50.78;34.03;;;;;;;;;;4982278;28;20479;-56
2022/12/08 01:47:54;;;;;;;47.90;31.45;;;;;;;;;;4982509;28;20049;-57
2022/12/08 01:50:21;;;;;;;45.17;29.90;;;;;;;;;;4978473;28;20031;-57
2022/12/08 01:52:59;;;;;;;48.88;33.15;;;;;;;;;;4981714;28;20157;-60
2022/12/08 01:55:27;;;;;;;61.30;34.65;;;;;;;;;;4972608;28;20544;-58
2022/12/08 01:57:56;;;;;;;48.72;33.90;;;;;;;;;;4972063;28;20043;-57
2022/12/08 02:00:23;;;;;;;57.15;36.45;;;;;;;;;;4972158;28;20059;-57
2022/12/08 02:02:53;;;;;;;67.53;39.08;;;;;;;;;;4972295;28;20019;-63
2022/12/08 02:05:21;;;;;;;53.97;34.50;;;;;;;;;;4972238;28;20054;-59
2022/12/08 02:07:48;;;;;;;64.05;36.78;;;;;;;;;;4972309;28;20089;-64
2022/12/08 02:10:16;;;;;;;56.53;35.63;;;;;;;;;;4971642;28;20078;-64
2022/12/08 02:12:42;;;;;;;57.92;34.58;;;;;;;;;;4971751;28;20488;-64
2022/12/08 02:15:09;;;;;;;58.78;35.97;;;;;;;;;;4971835;28;20034;-58
2022/12/08 02:17:44;;;;;;;54.63;36.25;;;;;;;;;;4971646;28;20484;-61
2022/12/08 02:20:10;;;;;;;60.05;37.63;;;;;;;;;;4972068;28;20037;-57
2022/12/08 02:23:02;;;;;;;67.30;42.40;;;;;;;;;;4971736;28;20034;-60
2022/12/08 02:25:38;;;;;;;74.15;48.00;;;;;;;;;;4968122;28;20106;-63
2022/12/08 02:28:33;;;;;;;64.60;44.08;;;204.80;2252.80;;;;;;4971726;28;20389;-64
2022/12/08 02:31:17;;;;;;;70.45;41.53;;;;;;;;;;4972091;28;20074;-62
2022/12/08 02:34:19;;;;;;;73.80;44.15;;;180.10;2252.80;;;;;;4971712;28;20112;-63
2022/12/08 02:36:56;;;;;;;76.65;46.15;;;;;;;;;;4971700;28;20030;-58
2022/12/08 02:39:25;;;;;;;62.75;39.50;;;;;;;;;;4971758;28;20440;-62
2022/12/08 02:41:56;;;;;;;78.07;46.35;;;;;;;;;;4971472;28;20026;-63
2022/12/08 02:44:27;;;;;;;63.40;41.97;;;;;;;;;;4970799;28;20027;-57
2022/12/08 02:47:02;;;;;;;65.85;43.30;;;;;;;;;;4971749;28;20093;-62
2022/12/08 02:49:32;;;;;;;71.22;48.67;;;;;;;;;;4971603;28;20089;-64
2022/12/08 02:52:28;;;;;;;77.22;43.90;;;;;;;;;;4971766;28;20023;-63
2022/12/08 02:54:54;;;;;;;77.35;45.28;;;;;;;;;;4954921;28;20047;-58
2022/12/08 02:57:38;;;;;;;73.70;46.33;;;;;;;;;;4971372;28;20058;-59
2022/12/08 03:00:04;;;;;;;73.15;47.92;;;;;;;;;;4971115;28;20441;-59
2022/12/08 03:02:40;;;;;;;79.00;49.88;;;;;;;;;;4971293;28;20035;-57
2022/12/08 03:05:45;;;;;;;86.43;52.08;;;179.70;2252.80;;;;;;4971412;28;20457;-57
2022/12/08 03:08:22;;;;;;;123.22;68.15;;;179.60;2227.20;;;;;;4971283;28;20043;-57
2022/12/08 03:11:12;;;;;;;92.38;57.33;;;179.70;2252.80;;;;;;4971364;28;20102;-63
2022/12/08 03:13:42;;;;;;;113.18;58.35;;;179.70;2252.80;;;;;;4971195;28;20027;-58
2022/12/08 03:16:13;;;;;;;97.88;54.92;;;179.70;2124.80;;;;;;4971241;28;20023;-63
2022/12/08 03:18:46;;;;;;;91.78;54.25;;;179.90;2252.80;;;;;;4971041;28;20568;-57
2022/12/08 03:21:16;;;;;;;84.93;52.15;;;180.00;2252.80;;;;;;4970986;28;20556;-57
2022/12/08 03:23:45;;;;;;;79.22;48.58;;;179.90;2252.80;;;;;;4971005;28;20033;-57
2022/12/08 03:26:29;;;;;;;86.18;48.53;;;180.00;2252.80;;;;;;4970773;28;20022;-62
2022/12/08 03:28:55;;;;;;;84.13;51.83;;;179.70;2073.60;;;;;;4970895;28;20042;-65
2022/12/08 03:31:23;;;;;;;81.20;47.95;;;179.80;2252.80;;;;;;4970877;28;20405;-58
2022/12/08 03:33:53;;;;;;;92.10;56.03;;;179.90;2252.80;;;;;;4971275;28;20425;-58
2022/12/08 03:36:19;;;;;;;106.30;63.88;;;180.00;2252.80;;;;;;4971096;28;20035;-63
2022/12/08 03:38:48;;;;;;;78.15;52.63;;;179.90;2252.80;;;;;;4971334;28;20023;-63
2022/12/08 03:41:17;;;;;;;80.53;50.28;;;180.00;2252.80;;;;;;4970662;28;20035;-61
2022/12/08 03:43:45;;;;;;;91.70;54.95;;;180.00;2252.80;;;;;;4970882;28;20035;-57
2022/12/08 03:46:10;;;;;;;84.45;52.03;;;179.90;1920.00;;;;;;4970996;28;20031;-64
2022/12/08 03:48:36;;;;;;;87.72;52.58;;;179.80;2252.80;;;;;;4971117;28;20034;-57
2022/12/08 03:51:02;;;;;;;83.38;52.17;;;179.80;2252.80;;;;;;4970989;28;20413;-59
2022/12/08 03:53:27;;;;;;;87.97;53.97;;;179.80;2252.80;;;;;;4971187;28;20023;-57
2022/12/08 03:55:53;;;;;;;76.97;49.22;;;179.90;2201.60;;;;;;4973109;28;20113;-59
2022/12/08 03:58:19;;;;;;;90.10;55.72;;;179.80;2252.80;;;;;;4974831;28;20106;-63
2022/12/08 04:00:44;;;;;;;85.95;51.33;;;179.90;1868.80;;;;;;4974349;28;20031;-58
2022/12/08 04:03:10;;;;;;;83.22;50.78;;;179.90;2227.20;;;;;;4974041;28;20027;-58
2022/12/08 04:05:36;;;;;;;85.00;51.00;;;179.90;1971.20;;;;;;4974261;28;20045;-59
2022/12/08 04:08:01;;;;;;;79.38;47.20;;;179.90;2252.80;;;;;;4974167;28;20125;-62
2022/12/08 04:10:27;;;;;;;83.57;48.47;;;179.90;2252.80;;;;;;4974358;28;20019;-62
2022/12/08 04:12:53;;;;;;;72.78;44.88;;;180.00;2073.60;;;;;;4973958;28;20469;-60
2022/12/08 04:15:18;;;;;;;89.47;48.30;;;179.90;2252.80;;;;;;4974497;28;20019;-63
2022/12/08 04:17:44;;;;;;;96.28;54.78;;;180.00;2252.80;;;;;;4974078;28;20491;-60
2022/12/08 04:20:10;;;;;;;80.05;46.15;;;180.10;2252.80;;;;;;4973938;28;20058;-64
2022/12/08 04:22:36;;;;;;;79.50;47.88;;;180.00;2252.80;;;;;;4974164;28;20034;-63
2022/12/08 04:25:02;;;;;;;80.50;47.75;;;179.90;2099.20;;;;;;4973689;28;20027;-64
2022/12/08 04:27:28;;;;;;;82.25;47.92;;;180.10;2252.80;;;;;;4974118;28;20039;-63
2022/12/08 04:29:53;;;;;;;80.85;50.35;;;180.00;2252.80;;;;;;4973929;28;20346;-62
2022/12/08 04:32:19;;;;;;;86.13;49.78;;;179.90;2252.80;;;;;;4973938;28;20031;-64
2022/12/08 04:34:45;;;;;;;78.05;52.58;;;179.90;2252.80;;;;;;4974150;28;20030;-60
2022/12/08 04:37:10;;;;;;;114.68;61.30;;;179.90;2252.80;;;;;;4973629;28;20030;-64
2022/12/08 04:39:36;;;;;;;80.15;50.42;;;179.80;2022.40;;;;;;4973710;28;20525;-63
2022/12/08 04:42:02;;;;;;;91.93;50.92;;;179.90;2252.80;;;;;;4973515;28;20026;-63
2022/12/08 04:44:27;;;;;;;87.75;48.90;;;179.90;2252.80;;;;;;4973635;28;20516;-61
2022/12/08 04:46:53;;;;;;;85.38;51.75;;;180.00;2073.60;;;;;;4973466;28;20027;-63
2022/12/08 04:49:19;;;;;;;94.13;45.95;;;179.90;2252.80;;;;;;4973943;28;20034;-58
2022/12/08 04:51:44;;;;;;;71.53;44.70;;;179.90;2252.80;;;;;;4973618;28;20492;-61
2022/12/08 04:54:10;;;;;;;83.57;51.30;;;179.90;1945.60;;;;;;4973531;28;20031;-63
2022/12/08 04:56:36;;;;;;;81.38;47.53;;;179.80;2048.00;;;;;;4973209;28;20050;-63
2022/12/08 04:59:02;;;;;;;86.63;49.63;;;179.80;1996.80;;;;;;4973346;28;20031;-58
2022/12/08 05:01:27;;;;;;;87.97;51.13;;;179.80;2252.80;;;;;;4973414;28;20460;-63
2022/12/08 05:03:53;;;;;;;86.50;52.47;;;179.80;2252.80;;;;;;4973136;28;20394;-60
2022/12/08 05:06:19;;;;;;;84.47;53.53;;;179.80;2252.80;;;;;;4955087;28;20940;-57
2022/12/08 05:08:44;;;;;;;86.60;53.08;;;179.70;2252.80;;;;;;4973467;28;20405;-58
2022/12/08 05:11:12;;;;;;;98.03;57.63;;;179.70;2252.80;;;;;;4973061;28;20034;-62
2022/12/08 05:13:37;;;;;;;107.82;67.70;;;179.70;2252.80;;;;;;4973379;28;20381;-62
2022/12/08 05:16:11;;;;;;;109.38;67.53;;;179.70;2252.80;;;;;;4972798;28;20023;-64
2022/12/08 05:18:38;;;;;;;126.63;70.25;;;179.80;2252.80;;;;;;4973293;28;20088;-63
2022/12/08 05:21:05;;;;;;;114.10;72.63;;;179.80;2252.80;;;;;;4973004;28;20055;-62
2022/12/08 05:23:31;;;;;;;126.55;74.78;;;179.90;2252.80;;;;;;4972955;28;20478;-60
2022/12/08 05:25:57;;;;;;;146.70;85.78;;;179.70;2252.80;;;;;;4973058;28;20026;-57
2022/12/08 05:28:23;;;;;;;134.40;76.18;;;179.90;2252.80;;;;;;4972692;28;20577;-63
2022/12/08 05:30:48;;;;;;;162.38;87.88;;;179.80;2252.80;;;;;;4972971;28;20105;-63
2022/12/08 05:33:14;;;;;;;145.25;83.28;;;179.80;2252.80;;;;;;4972570;28;20027;-57
2022/12/08 05:35:40;;;;;;;153.30;87.07;;;179.70;2252.80;;;;;;4972548;28;20026;-57
2022/12/08 05:38:06;;;;;;;156.70;87.18;;;179.60;2252.80;;;;;;4972656;28;20041;-63
2022/12/08 05:40:32;;;;;;;206.30;104.43;;;179.80;2252.80;;;;;;4972082;28;20035;-58
2022/12/08 05:42:57;;;;;;;162.45;87.60;;;179.60;2252.80;;;;;;4972643;28;20362;-58
2022/12/08 05:45:23;;;;;;;238.02;114.25;;;179.70;2252.80;;;;;;4972460;28;20026;-59
2022/12/08 05:47:49;;;;;;;135.15;77.57;;;179.70;2252.80;;;;;;4972668;28;20365;-57
2022/12/08 05:50:14;;;;;;;197.18;86.10;;;179.70;2252.80;;;;;;4972165;28;20088;-59
2022/12/08 05:52:40;;;;;;;213.82;91.15;;;179.70;2252.80;;;;;;4972465;28;20117;-58
2022/12/08 05:55:06;;;;;;;250.90;108.32;;;179.50;2252.80;;;;;;4972066;28;20027;-58
2022/12/08 05:57:32;;;;;;;175.10;97.18;;;179.50;2252.80;;;;;;4971816;28;20058;-63
2022/12/08 05:59:58;;;;;;;176.07;94.10;;;179.50;2252.80;;;;;;4972460;28;20038;-62
2022/12/08 06:02:24;;;;;;;171.70;87.35;;;179.60;2252.80;;;;;;4972226;28;20030;-58
2022/12/08 06:04:50;;;;;;;399.58;150.35;;;179.60;2252.80;;;;;;4972306;28;20358;-58
2022/12/08 06:07:16;;;;;;;418.98;157.88;;;179.70;2252.80;;;;;;4971889;28;20054;-61
2022/12/08 06:09:42;;;;;;;276.10;148.25;;;179.60;2252.80;;;;;;4971937;28;20035;-57
2022/12/08 06:12:10;;;;;;;350.45;124.38;;;179.70;2252.80;;;;;;4972278;28;20031;-61
2022/12/08 06:14:39;;;;;;;162.45;76.45;;;179.70;2252.80;;;;;;4971954;28;20042;-60
2022/12/08 06:17:05;;;;;;;156.20;87.80;;;179.60;2252.80;;;;;;4972122;28;20447;-57
2022/12/08 06:19:31;;;;;;;228.13;102.90;;;179.60;2252.80;;;;;;4971893;28;20114;-57
2022/12/08 06:21:56;;;;;;;323.52;97.20;;;179.70;2252.80;;;;;;4972111;28;20031;-57
2022/12/08 06:24:22;;;;;;;285.35;97.47;;;179.60;2252.80;;;;;;4972030;28;20027;-61
2022/12/08 06:26:48;;;;;;;388.83;120.80;;;179.50;2252.80;;;;;;4971376;28;20122;-62
2022/12/08 06:29:14;;;;;;;282.67;119.47;;;179.70;2252.80;;;;;;4971470;28;20031;-63
2022/12/08 06:31:40;;;;;;;220.32;105.65;;;179.70;2252.80;;;;;;4971986;28;20023;-59
2022/12/08 06:34:06;;;;;;;292.10;119.70;;;179.80;2252.80;;;;;;4971787;28;20022;-59
2022/12/08 06:36:33;;;;;;;304.50;115.90;;;179.90;2252.80;;;;;;4971433;28;20057;-59
2022/12/08 06:39:00;;;;;;;434.40;124.10;;;179.80;2252.80;;;;;;4971937;28;20789;-65
2022/12/08 06:41:25;;;;;;;472.38;119.93;;;179.70;2252.80;;;;;;4971476;28;20023;-65
2022/12/08 06:43:54;;;;;;;274.40;96.35;;;179.60;2252.80;;;;;;4971512;28;20034;-65
2022/12/08 06:46:20;;;;;;;617.80;150.25;;;179.70;2252.80;;;;;;4972086;28;20859;-65
2022/12/08 06:48:45;;;;;;;373.55;117.00;;;179.70;2252.80;;;;;;4971808;28;20473;-58
2022/12/08 06:51:14;;;;;;;323.38;108.00;;;179.90;2252.80;;;;;;4971144;28;20406;-59
2022/12/08 06:53:41;;;;;;;563.17;137.35;;;179.90;2099.20;;;;;;4971514;28;20418;-59
2022/12/08 06:56:07;;;;;;;308.10;96.47;;;179.80;2252.80;;;;;;4971276;28;20038;-59
2022/12/08 06:58:33;;;;;;;253.95;97.55;;;179.80;2252.80;;;;;;4971242;28;20027;-63
2022/12/08 07:01:12;;;;;;;533.58;151.23;;;179.90;2252.80;;;;;;4971355;28;20527;-62
2022/12/08 07:03:39;;;;;;;255.57;89.60;;;179.90;2252.80;;;;;;4971654;28;20414;-59
2022/12/08 07:06:05;;;;;;;152.05;82.13;;;179.90;2252.80;;;;;;4971134;28;20037;-59
2022/12/08 07:08:32;;;;;;;350.20;119.00;;;180.10;2252.80;;;;;;4971046;28;20047;-59
2022/12/08 07:10:58;;;;;;;379.08;121.10;;;180.10;2252.80;;;;;;4971118;28;20027;-58
2022/12/08 07:13:24;;;;;;;165.25;76.47;;;180.00;1945.60;;;;;;4971149;28;20037;-63
2022/12/08 07:15:49;;;;;;;220.10;91.70;;;180.10;2252.80;;;;;;4971340;28;20026;-62
2022/12/08 07:18:15;;;;;;;171.57;81.13;;;180.10;2252.80;;;;;;4971114;28;20365;-58
2022/12/08 07:20:41;;;;;;;145.27;75.10;;;180.10;2252.80;;;;;;4971115;28;20031;-58
2022/12/08 07:23:06;;;;;;;391.10;122.47;;;180.10;2252.80;;;;;;4971355;28;20026;-63
2022/12/08 07:25:32;;;;;;;351.35;120.40;;;180.10;2252.80;;;;;;4970892;28;20392;-63
2022/12/08 07:27:58;;;;;;;258.02;107.65;;;204.90;2252.80;;;;;;4971261;28;20454;-60
2022/12/08 07:30:24;;;;;;;219.05;100.03;;;180.10;2252.80;;;;;;4973057;28;20027;-63
2022/12/08 07:32:49;;;;;;;223.10;99.70;;;180.10;2252.80;;;;;;4974978;28;20027;-61
2022/12/08 07:35:15;;;;;;;208.93;92.30;;;180.10;2252.80;;;;;;4979523;28;20033;-59
2022/12/08 07:37:41;;;;;;;192.77;80.97;;;179.90;2252.80;;;;;;4974678;28;20546;-59
2022/12/08 07:40:07;;;;;;;211.07;85.65;;;179.80;2252.80;;;;;;4975145;28;20027;-58
2022/12/08 07:42:33;;;;;;;166.63;75.05;;;179.90;2252.80;;;;;;4974582;28;20093;-58
2022/12/08 07:44:59;;;;;;;137.52;64.93;;;179.90;2252.80;;;;;;4975024;28;20109;-62
2022/12/08 07:47:25;;;;;;;222.57;82.22;;;180.10;2252.80;;;;;;4974744;28;20035;-59
2022/12/08 07:49:51;;;;;;;138.63;69.97;;;180.00;2252.80;;;;;;4974654;28;20597;-62
2022/12/08 07:52:16;;;;;;;135.95;78.70;;;180.10;2252.80;;;;;;4974588;28;20031;-58
2022/12/08 07:54:42;;;;;;;174.38;85.60;;;180.10;2252.80;;;;;;4974608;28;20106;-62
2022/12/08 07:57:08;;;;;;;184.55;81.75;;;205.00;2252.80;;;;;;4974361;28;20494;-64
2022/12/08 07:59:34;;;;;;;308.15;123.25;;;205.00;2252.80;;;;;;4974408;28;20081;-60
2022/12/08 08:02:00;;;;;;;318.55;104.38;;;205.00;2252.80;;;;;;4974465;28;20093;-60
2022/12/08 08:04:26;;;;;;;222.77;87.30;;;204.90;2252.80;;;;;;4974397;28;20477;-63
2022/12/08 08:06:51;;;;;;;212.88;74.85;;;180.10;2252.80;;;;;;4974133;28;20047;-60
2022/12/08 08:09:17;;;;;;;175.90;89.07;;;204.80;2252.80;;;;;;4974099;28;20031;-63
2022/12/08 08:11:43;;;;;;;158.85;77.03;;;205.00;2252.80;;;;;;4973924;28;20085;-62
2022/12/08 08:14:08;;;;;;;150.02;65.75;;;205.20;2252.80;;;;;;4974321;28;20027;-65
2022/12/08 08:16:34;;;;;;;116.32;57.25;;;205.30;2252.80;;;;;;4973934;28;20054;-64
2022/12/08 08:19:00;;;;;;;129.43;66.28;;;205.50;2252.80;;;;;;4974116;28;20366;-65
2022/12/08 08:21:26;;;;;;;148.48;78.00;;;205.40;2252.80;;;;;;4974340;28;20030;-65
2022/12/08 08:23:51;;;;;;;132.25;63.53;;;205.50;2252.80;;;;;;4973934;28;20034;-59
2022/12/08 08:26:17;;;;;;;123.53;59.97;;;205.60;2252.80;;;;;;4973437;28;20031;-59
2022/12/08 08:28:44;;;;;;;177.23;86.65;;;205.50;2252.80;;;;;;4973505;28;20092;-59
2022/12/08 08:31:11;;;;;;;235.07;87.97;;;205.70;2252.80;;;;;;4974119;28;20027;-64
2022/12/08 08:33:36;;;;;;;132.25;70.82;;;205.70;2252.80;;;;;;4974301;28;20381;-61
2022/12/08 08:36:07;;;;;;;180.77;85.45;;;205.70;2252.80;;;;;;4973527;28;20023;-65
2022/12/08 08:38:32;;;;;;;156.07;83.80;;;205.60;2252.80;;;;;;4973620;28;20035;-61
2022/12/08 08:41:00;;;;;;;172.30;95.88;;;205.70;2252.80;;;;;;4973085;28;20026;-59
2022/12/08 08:43:28;;;;;;;150.45;67.97;;;230.50;2252.80;;;;;;4973596;28;20023;-59
2022/12/08 08:45:59;;;;;;;237.80;83.22;;;230.40;2252.80;;;;;;4973485;28;20023;-59
2022/12/08 08:48:29;;;;;;;223.27;86.15;;;205.70;2252.80;;;;;;4973278;28;20093;-63
2022/12/08 08:50:55;;;;;;;218.15;90.60;;;205.60;2252.80;;;;;;4973409;28;20019;-59
2022/12/08 08:53:22;;;;;;;198.55;85.60;;;205.40;2252.80;;;;;;4973771;28;20042;-64
2022/12/08 08:55:48;;;;;;;151.65;75.50;;;205.40;2252.80;;;;;;4973508;28;20043;-62
2022/12/08 08:58:14;;;;;;;255.43;89.00;;;205.50;2252.80;;;;;;4973476;28;20054;-63
2022/12/08 09:00:40;;;;;;;127.95;65.85;;;205.20;2252.80;;;;;;4973271;28;20023;-61
2022/12/08 09:03:06;;;;;;;166.25;85.55;;;205.30;2252.80;;;;;;4973513;28;20377;-60
2022/12/08 09:05:32;;;;;;;149.98;74.85;;;205.50;2252.80;;;;;;4973104;28;20085;-60
2022/12/08 09:07:57;;;;;;;124.57;64.57;;;205.30;2252.80;;;;;;4973284;28;20042;-61
2022/12/08 09:10:23;;;;;;;147.07;72.97;;;205.20;2252.80;;;;;;4973286;28;20034;-59
2022/12/08 09:12:49;;;;;;;123.60;65.38;;;205.20;2252.80;;;;;;4973208;28;20496;-61
2022/12/08 09:15:14;;;;;;;123.50;67.18;;;205.40;2252.80;;;;;;4973055;28;20061;-60
2022/12/08 09:17:40;;;;;;;143.48;70.63;;;205.30;2252.80;;;;;;4973069;28;20022;-59
2022/12/08 09:20:07;;;;;;;135.18;73.30;;;205.30;2252.80;;;;;;4973014;28;20022;-64
2022/12/08 09:22:32;;;;;;;245.52;159.65;;;205.40;2252.80;;;;;;4972983;28;20114;-59
2022/12/08 09:24:58;;;;;;;164.10;85.10;;;205.40;2252.80;;;;;;4972975;28;20110;-64
2022/12/08 09:27:24;;;;;;;164.35;85.30;;;205.50;2252.80;;;;;;4972497;28;20122;-64
2022/12/08 09:29:50;;;;;;;158.93;89.43;;;205.50;2252.80;;;;;;4973034;28;20030;-59
2022/12/08 09:32:15;;;;;;;157.30;81.60;;;205.60;2252.80;;;;;;4973093;28;20090;-63
2022/12/08 09:34:41;;;;;;;227.32;97.82;;;205.50;2252.80;;;;;;4972668;28;20022;-64
2022/12/08 09:37:06;;;;;;;175.90;86.60;;;205.40;2252.80;;;;;;4972610;28;20034;-59
2022/12/08 09:39:32;;;;;;;157.90;84.93;;;205.50;2252.80;;;;;;4972719;28;20086;-64
2022/12/08 09:42:06;;;;;;;208.82;111.88;;;205.50;2252.80;;;;;;4972763;28;20034;-65
2022/12/08 09:44:56;;;;;;;163.13;87.43;;;205.60;2252.80;;;;;;4972680;28;20070;-64
2022/12/08 09:47:30;;;;;;;165.73;93.40;;;205.50;2252.80;;;;;;4972745;28;20042;-62
2022/12/08 09:50:11;;;;;;;152.10;79.90;;;205.60;2252.80;;;;;;4972439;28;20492;-59
2022/12/08 09:52:55;;;;;;;154.70;88.40;;;205.70;2252.80;;;;;;4972190;28;20500;-67
2022/12/08 09:55:36;;;;;;;144.45;80.03;;;205.60;2252.80;;;;;;4971973;28;20031;-61
2022/12/08 09:58:03;;;;;;;149.45;90.00;;;205.70;2252.80;;;;;;4972058;28;20039;-62
2022/12/08 10:00:29;;;;;;;156.38;87.07;;;230.40;2252.80;;;;;;4972339;28;20113;-64
2022/12/08 10:02:56;;;;;;;203.27;103.07;;;205.70;2252.80;;;;;;4972263;28;20110;-59
2022/12/08 10:05:24;;;;;;;195.05;93.25;;;205.60;2252.80;;;;;;4972001;28;20031;-59
2022/12/08 10:08:10;;;;;;;182.43;97.95;;;205.60;2252.80;;;;;;4972256;28;20039;-60
2022/12/08 10:10:45;;;;;;;191.93;96.55;;;205.60;2252.80;;;;;;4972282;28;20392;-60
2022/12/08 10:13:41;;;;;;;201.38;102.80;;;205.60;2252.80;;;;;;4971649;28;20027;-65
2022/12/08 10:16:33;;;;;;;187.00;101.07;;;230.40;2252.80;;;;;;4971955;28;20018;-64
2022/12/08 10:19:20;;;;;;;183.88;98.20;;;230.40;2252.80;;;;;;4972018;28;20027;-66
2022/12/08 10:21:47;;;;;;;158.07;89.32;;;230.60;2252.80;;;;;;4972067;28;20051;-67
2022/12/08 10:24:32;;;;;;;156.00;89.93;;;230.60;2252.80;;;;;;4971752;28;20101;-59
2022/12/08 10:26:59;;;;;;;141.43;80.55;;;230.60;2252.80;;;;;;4971737;28;20066;-64
2022/12/08 10:29:24;;;;;;;167.77;92.95;;;230.70;2252.80;;;;;;4971573;28;20034;-65
2022/12/08 10:31:50;;;;;;;174.85;94.50;;;230.60;2252.80;;;;;;4971747;28;20023;-60
2022/12/08 10:34:23;;;;;;;165.25;91.05;;;230.70;2252.80;;;;;;4971746;28;20053;-59
2022/12/08 10:36:55;;;;;;;179.53;99.53;;;230.80;2252.80;;;;;;4971871;28;20026;-64
2022/12/08 10:39:32;;;;;;;183.90;111.25;;;230.70;2252.80;;;;;;4971721;28;20265;-59
2022/12/08 10:42:05;;;;;;;211.82;118.97;;;230.60;2252.80;;;;;;4971501;28;20027;-63
2022/12/08 10:44:31;;;;;;;;;;;230.60;2252.80;;;;;;4971856;28;20533;-60
2022/12/08 10:46:57;;;;;;;196.68;112.13;;;230.50;2252.80;;;;;;4971738;28;19914;-59
2022/12/08 10:49:31;;;;;;;216.85;114.60;;;230.50;2252.80;;;;;;4971800;28;20378;-59
2022/12/08 10:51:57;;;;;;;217.68;117.15;;;230.40;2252.80;;;;;;4971387;28;20101;-64
2022/12/08 10:54:36;;;;;;;229.05;122.80;;;230.40;2252.80;;;;;;4971596;28;20366;-64
2022/12/08 10:57:02;;;;;;;208.90;112.90;;;230.40;2252.80;;;;;;4971017;28;20058;-64
2022/12/08 10:59:28;;;;;;;209.65;115.28;;;230.50;2252.80;;;;;;4971396;28;20027;-64
2022/12/08 11:01:55;;;;;;;231.68;142.15;;;230.60;2252.80;;;;;;4971444;28;20041;-62
2022/12/08 11:04:42;;;;;;;217.57;126.40;;;230.70;2252.80;;;;;;4970579;28;20442;-59
2022/12/08 11:07:12;;;;;;;200.30;112.70;;;230.80;2252.80;;;;;;4970392;28;20389;-64
2022/12/08 11:09:47;;;;;;;189.77;108.95;;;230.60;2252.80;;;;;;4971308;28;20047;-64
2022/12/08 11:12:15;;;;;;;191.65;104.90;;;230.60;2252.80;;;;;;4970980;28;20058;-64
2022/12/08 11:14:44;;;;;;;175.25;100.95;;;230.60;2252.80;;;;;;4971154;28;20030;-59
2022/12/08 11:17:21;;;;;;;180.68;95.93;;;230.70;2252.80;;;;;;4971066;28;20112;-62
2022/12/08 11:20:22;;;;;;;165.65;93.35;;;230.90;2252.80;;;;;;4971602;28;20029;-64
2022/12/08 11:22:54;;;;;;;184.10;94.80;;;230.90;2252.80;;;;;;4893024;29;20558;-64
2022/12/08 11:25:26;;;;;;;162.77;90.25;;;230.70;2252.80;;;;;;4893031;29;20048;-65
2022/12/08 11:28:01;;;;;;;163.18;90.15;;;230.70;2252.80;;;;;;4892558;29;20452;-64
2022/12/08 11:30:41;;;;;;;166.85;94.20;;;230.50;2252.80;;;;;;4892947;29;20068;-62
2022/12/08 11:33:18;;;;;;;182.20;105.50;;;205.70;2252.80;;;;;;4892841;29;20083;-59
2022/12/08 11:36:14;;;;;;;195.13;125.68;;;205.60;2252.80;;;;;;4892587;29;20049;-63
2022/12/08 11:38:44;;;;;;;171.18;90.40;;;230.40;2252.80;;;;;;4855350;29;20125;-63
2022/12/08 11:41:33;;;;;;;154.00;87.30;;;230.40;2252.80;;;;;;4855517;29;20124;-64
2022/12/08 11:44:31;;;;;;;142.35;80.30;;;230.40;2252.80;;;;;;4855182;29;20079;-58
2022/12/08 11:47:21;;;;;;;155.30;76.97;;;205.70;2252.80;;;;;;4855195;29;20041;-59
2022/12/08 11:49:55;;;;;;;141.13;75.80;;;205.60;2252.80;;;;;;4855363;29;20049;-59
2022/12/08 11:52:32;;;;;;;154.65;87.47;;;205.70;2252.80;;;;;;4855420;29;20037;-59
2022/12/08 11:55:26;;;;;;;132.75;72.97;;;230.50;2252.80;;;;;;4855492;29;20049;-59
2022/12/08 11:57:55;;;;;;;119.95;66.15;;;230.60;2252.80;;;;;;4890639;29;20176;-59
2022/12/08 12:00:21;;;;;;;134.40;69.63;;;205.70;2252.80;;;;;;4892617;29;20029;-59
2022/12/08 12:03:00;;;;;;;128.32;68.03;;;205.60;2150.40;;;;;;4892528;29;20052;-63
2022/12/08 12:05:46;;;;;;;362.40;190.57;;;205.70;2252.80;;;;;;4892355;29;20025;-60
2022/12/08 12:08:45;;;;;;;127.00;69.80;;;205.70;1920.00;;;;;;4892278;29;20083;-59
2022/12/08 12:12:12;;;;;;;122.50;70.28;;;230.40;2252.80;;;;;;4892288;29;20165;-60
2022/12/08 12:14:21;;;;;;;130.00;71.90;;;230.40;2252.80;;;;;;4899953;28;20048;-59
2022/12/08 12:17:00;;;;;;;123.22;65.25;;;205.70;2252.80;;;;;;4973030;28;20031;-63
2022/12/08 12:19:31;;;;;;;109.95;57.25;;;205.60;2252.80;;;;;;4974485;28;20026;-59
2022/12/08 12:22:01;;;;;;;139.27;73.47;;;205.40;2252.80;;;;;;4974147;28;20109;-59
2022/12/08 12:24:38;;;;;;;193.73;101.22;;;205.40;2252.80;;;;;;4974082;28;20484;-58
2022/12/08 12:27:12;;;;;;;242.55;123.43;;;205.50;2252.80;;;;;;4973765;28;20532;-64
2022/12/08 12:29:43;;;;;;;125.15;67.20;;;205.70;1868.80;;;;;;4974012;28;20066;-59
2022/12/08 12:32:10;;;;;;;110.43;56.70;;;230.40;2252.80;;;;;;4974197;28;20034;-63
2022/12/08 12:34:57;;;;;;;130.57;70.05;;;230.50;2252.80;;;;;;4973955;28;20089;-59